Time;durP1;ratioP1;P1;durP2;ratioP2;P2;SDS_P1;SDS_P2;PMS_P1;PMS_P2;Temp;Humidity;BMP_temperature;BMP_pressure;BME280_temperature;BME280_humidity;BME280_pressure;Samples;Min_cycle;Max_cycle;Signal;HPM_P1;HPM_P2
2021/11/16 00:01:37;;;;;;;88.25;56.28;;;;;;;6.87;95.83;101324.09;2816338;84;21039;-74
2021/11/16 00:05:33;;;;;;;70.22;41.02;;;;;;;6.86;96.00;101327.67;2822264;83;21007;-73
2021/11/16 00:09:35;;;;;;;95.00;51.42;;;;;;;6.78;96.50;101322.79;2823953;84;21071;-74
2021/11/16 00:13:37;;;;;;;82.08;50.83;;;;;;;6.80;96.71;101337.24;2823907;84;21015;-73
2021/11/16 00:17:39;;;;;;;99.25;61.70;;;;;;;6.75;97.10;101337.94;2823363;84;21027;-74
2021/11/16 00:21:44;;;;;;;90.40;55.03;;;;;;;6.83;96.85;101338.41;2823221;84;21100;-74
2021/11/16 00:25:51;;;;;;;94.62;53.98;;;;;;;6.82;97.25;101334.05;2822950;84;21030;-73
2021/11/16 00:29:53;;;;;;;87.45;50.43;;;;;;;6.90;96.70;101333.67;2822425;83;21019;-73
2021/11/16 00:33:54;;;;;;;94.42;55.40;;;;;;;6.86;96.82;101326.34;2822997;83;21058;-74
2021/11/16 00:37:56;;;;;;;87.12;51.98;;;;;;;6.81;97.24;101338.50;2822886;84;21015;-74
2021/11/16 00:41:58;;;;;;;86.20;48.95;;;;;;;6.85;96.75;101337.41;2823140;84;21022;-74
2021/11/16 00:45:59;;;;;;;92.12;53.25;;;;;;;6.75;97.19;101336.62;2823340;84;21066;-74
2021/11/16 00:50:02;;;;;;;89.40;52.03;;;;;;;6.77;97.11;101334.75;2823143;84;21026;-74
2021/11/16 00:54:04;;;;;;;80.42;49.35;;;;;;;6.76;97.31;101334.36;2823026;84;21054;-73
2021/11/16 00:58:06;;;;;;;100.45;58.08;;;;;;;6.79;96.76;101329.80;2823190;84;21085;-74
2021/11/16 01:02:08;;;;;;;86.78;49.50;;;;;;;6.88;96.46;101335.09;2793493;84;21087;-74
2021/11/16 01:06:10;;;;;;;97.02;55.73;;;;;;;6.80;96.76;101332.83;2789684;85;21063;-74
2021/11/16 01:10:16;;;;;;;89.00;53.20;;;;;;;6.86;96.62;101332.96;2789324;85;21047;-73
2021/11/16 01:14:18;;;;;;;104.53;55.85;;;;;;;6.93;96.42;101337.03;2789844;85;21084;-73
2021/11/16 01:18:23;;;;;;;87.53;52.70;;;;;;;6.84;96.99;101336.15;2789732;85;21063;-73
2021/11/16 01:22:25;;;;;;;102.10;57.85;;;;;;;6.70;97.79;101323.16;2789791;85;21047;-74
2021/11/16 01:26:27;;;;;;;108.72;56.18;;;;;;;6.60;98.53;101323.20;2789916;85;21035;-74
2021/11/16 01:30:31;;;;;;;95.28;55.70;;;;;;;6.49;99.45;101318.92;2789500;85;21145;-74
2021/11/16 01:34:33;;;;;;;92.05;52.23;;;;;;;6.54;99.36;101314.27;2790175;85;21020;-74
2021/11/16 01:38:35;;;;;;;97.60;55.70;;;;;;;6.39;99.97;101304.81;2789880;85;21301;-74
2021/11/16 01:42:37;;;;;;;110.30;61.80;;;;;;;6.55;99.34;101310.20;2789787;85;21075;-74
2021/11/16 01:46:40;;;;;;;99.92;56.65;;;;;;;6.49;99.92;101302.58;2790089;85;21116;-74
2021/11/16 01:50:44;;;;;;;92.10;57.45;;;;;;;6.56;99.56;101290.77;2790235;85;21008;-73
2021/11/16 01:54:46;;;;;;;107.63;59.98;;;;;;;6.63;98.76;101291.33;2790289;85;21046;-74
2021/11/16 01:58:48;;;;;;;121.82;63.48;;;;;;;6.64;98.49;101286.42;2790012;85;21059;-74
2021/11/16 02:02:50;;;;;;;106.07;59.13;;;;;;;6.71;98.16;101285.66;2790168;85;21087;-74
2021/11/16 02:06:52;;;;;;;110.17;54.50;;;;;;;6.63;98.50;101293.12;2790284;85;21067;-74
2021/11/16 02:10:55;;;;;;;102.58;61.05;;;;;;;6.41;99.81;101287.09;2789956;85;21094;-74
2021/11/16 02:14:57;;;;;;;119.62;60.45;;;;;;;6.38;100.00;101279.31;2790133;85;21007;-75
2021/11/16 02:19:00;;;;;;;105.90;57.00;;;;;;;6.40;100.00;101280.09;2789949;85;21043;-74
2021/11/16 02:23:04;;;;;;;105.27;56.23;;;;;;;6.43;100.00;101281.27;2789881;85;21004;-75
2021/11/16 02:27:06;;;;;;;99.97;55.70;;;;;;;6.55;99.07;101285.09;2790071;85;21011;-74
2021/11/16 02:31:07;;;;;;;102.45;53.38;;;;;;;6.66;98.58;101285.88;2789831;85;21103;-75
2021/11/16 02:35:09;;;;;;;95.45;54.70;;;;;;;6.73;98.02;101284.28;2789883;85;21082;-75
2021/11/16 02:39:13;;;;;;;108.05;60.20;;;;;;;6.78;97.67;101283.12;2790038;85;21032;-74
2021/11/16 02:43:15;;;;;;;101.75;52.98;;;;;;;6.82;97.29;101286.00;2789936;85;21039;-73
2021/11/16 02:47:16;;;;;;;90.95;53.50;;;;;;;6.91;96.93;101274.55;2790215;84;21007;-74
2021/11/16 02:51:18;;;;;;;82.47;50.73;;;;;;;6.85;96.78;101267.77;2790303;85;20996;-74
2021/11/16 02:55:20;;;;;;;86.25;47.83;;;;;;;6.87;96.61;101272.52;2790146;85;21055;-75
2021/11/16 02:59:22;;;;;;;79.00;45.50;;;;;;;6.90;96.28;101270.20;2791782;84;21078;-74
2021/11/16 03:03:24;;;;;;;85.77;46.85;;;;;;;6.85;96.44;101270.42;2823306;84;21054;-75
2021/11/16 03:07:34;;;;;;;100.20;53.42;;;;;;;6.83;96.48;101273.61;2823345;84;21077;-75
2021/11/16 03:11:36;;;;;;;100.47;53.15;;;;;;;6.82;96.71;101273.22;2823439;84;21036;-75
2021/11/16 03:15:40;;;;;;;103.42;52.25;;;;;;;6.77;96.81;101266.00;2823567;84;21026;-75
2021/11/16 03:19:42;;;;;;;96.02;51.25;;;;;;;6.75;97.25;101259.93;2823419;82;21094;-74
2021/11/16 03:23:46;;;;;;;97.40;51.60;;;;;;;6.71;97.57;101257.90;2823227;84;20999;-75
2021/11/16 03:27:55;;;;;;;80.05;43.98;;;;;;;6.66;97.72;101254.16;2823403;84;21077;-75
2021/11/16 03:36:18;;;;;;;89.77;46.63;;;;;;;6.66;97.65;101261.24;2823429;84;21050;-73
2021/11/16 03:40:22;;;;;;;102.05;50.78;;;;;;;6.66;97.92;101248.86;2823615;84;21050;-75
2021/11/16 03:44:25;;;;;;;103.62;50.23;;;;;;;6.66;97.98;101249.34;2823462;84;21010;-75
2021/11/16 03:48:30;;;;;;;84.17;43.23;;;;;;;6.67;98.11;101245.29;2823916;84;21075;-75
2021/11/16 03:52:35;;;;;;;86.28;46.05;;;;;;;6.74;97.99;101252.93;2823466;84;21046;-73
2021/11/16 03:56:35;;;;;;;96.53;51.08;;;;;;;6.76;97.86;101248.42;2823562;84;21136;-73
2021/11/16 04:00:46;;;;;;;91.40;49.70;;;;;;;6.75;98.02;101248.03;2813165;84;21000;-75
2021/11/16 04:04:53;;;;;;;87.02;45.95;;;;;;;6.71;97.92;101253.48;2790269;85;21023;-74
2021/11/16 04:08:51;;;;;;;90.22;47.05;;;;;;;6.70;97.74;101243.84;2789369;85;21075;-73
2021/11/16 04:12:54;;;;;;;89.87;48.52;;;;;;;6.66;98.08;101242.25;2789941;85;21074;-73
2021/11/16 04:16:55;;;;;;;82.72;43.83;;;;;;;6.62;98.50;101241.19;2790311;84;21072;-74
2021/11/16 04:21:00;;;;;;;94.75;48.42;;;;;;;6.63;98.46;101233.16;2790423;84;21086;-74
2021/11/16 04:25:02;;;;;;;80.32;46.68;;;;;;;6.63;98.60;101235.80;2790827;84;21043;-77
2021/11/16 04:29:05;;;;;;;82.70;42.65;;;;;;;6.66;98.48;101242.25;2791258;85;21059;-77
2021/11/16 04:33:08;;;;;;;78.02;45.20;;;;;;;6.71;98.31;101242.03;2790888;84;21483;-78
2021/11/16 04:37:10;;;;;;;93.25;51.83;;;;;;;6.66;98.73;101243.58;2791071;85;21004;-77
2021/11/16 04:41:11;;;;;;;68.02;35.90;;;;;;;6.68;98.75;101232.48;2790936;85;21059;-75
2021/11/16 04:45:19;;;;;;;70.95;44.40;;;;;;;6.51;99.09;101233.80;2791063;85;21059;-76
2021/11/16 05:02:45;;;;;;;87.92;44.70;;;;;;;6.57;99.06;101224.22;2810539;84;20983;-77
2021/11/16 05:06:03;;;;;;;78.57;43.23;;;;;;;6.49;99.32;101224.60;2805585;84;21022;-73
2021/11/16 05:10:07;;;;;;;75.25;40.12;;;;;;;6.45;99.35;101208.97;2823818;84;21042;-76
2021/11/16 05:14:10;;;;;;;85.25;49.27;;;;;;;6.50;99.40;101209.13;2823869;84;20982;-81
2021/11/16 05:18:11;;;;;;;79.65;42.62;;;;;;;6.42;99.70;101204.22;2823834;84;21050;-79
2021/11/16 05:22:13;;;;;;;78.80;44.67;;;;;;;6.41;100.00;101211.77;2823449;84;21049;-76
2021/11/16 05:26:15;;;;;;;93.20;43.85;;;;;;;6.36;100.00;101204.98;2822639;84;21058;-78
2021/11/16 05:30:18;;;;;;;74.90;44.65;;;;;;;6.36;100.00;101207.18;2822189;84;21042;-82
2021/11/16 05:34:20;;;;;;;90.75;47.25;;;;;;;6.40;100.00;101212.70;2821565;84;21385;-82
2021/11/16 05:38:25;;;;;;;83.82;43.08;;;;;;;6.40;100.00;101215.83;2820708;84;21051;-80
2021/11/16 05:42:27;;;;;;;90.87;45.87;;;;;;;6.34;100.00;101217.42;2821314;84;21081;-79
2021/11/16 05:46:30;;;;;;;77.37;40.92;;;;;;;6.40;100.00;101212.70;2822924;84;21042;-82
2021/11/16 05:50:32;;;;;;;83.42;46.48;;;;;;;6.35;100.00;101212.08;2823936;84;21018;-82
2021/11/16 05:54:34;;;;;;;75.08;40.83;;;;;;;6.35;100.00;101208.11;2823878;84;21034;-81
2021/11/16 05:58:41;;;;;;;68.62;40.67;;;;;;;6.20;100.00;101199.61;2823984;84;20960;-84
2021/11/16 06:02:43;;;;;;;76.37;43.40;;;;;;;6.24;100.00;101207.33;2799755;84;21099;-80
2021/11/16 06:06:47;;;;;;;61.70;39.00;;;;;;;6.08;100.00;101204.55;2790442;84;21019;-83
2021/11/16 06:10:49;;;;;;;67.12;34.67;;;;;;;6.08;100.00;101207.19;2790553;85;21099;-81
2021/11/16 06:14:51;;;;;;;87.00;44.73;;;;;;;6.05;100.00;101200.73;2790230;85;21063;-84
2021/11/16 06:19:01;;;;;;;84.20;47.33;;;;;;;6.18;100.00;101202.80;2770216;85;23761;-82
2021/11/16 06:23:02;;;;;;;77.82;43.40;;;;;;;6.19;100.00;101209.79;2790005;85;21055;-83
2021/11/16 06:27:06;;;;;;;73.15;41.70;;;;;;;6.10;100.00;101217.25;2789761;85;21012;-81
2021/11/16 06:31:09;;;;;;;86.45;49.18;;;;;;;6.06;100.00;101216.14;2790129;85;21035;-84
2021/11/16 06:35:19;;;;;;;126.82;70.70;;;;;;;6.19;100.00;101219.91;2790154;84;21086;-78
2021/11/16 06:39:22;;;;;;;168.00;88.65;;;;;;;6.17;100.00;101222.22;2790101;84;21078;-77
2021/11/16 06:43:27;;;;;;;94.77;51.75;;;;;;;6.27;100.00;101222.16;2789841;85;21082;-82
2021/11/16 06:47:29;;;;;;;130.50;66.42;;;;;;;6.37;100.00;101231.36;2789392;85;20980;-81
2021/11/16 06:51:37;;;;;;;84.97;48.73;;;;;;;6.37;100.00;101225.20;2789765;85;21086;-76
2021/11/16 06:55:35;;;;;;;143.37;77.15;;;;;;;6.23;100.00;101227.20;2761455;85;21082;-80
2021/11/16 06:59:38;;;;;;;182.65;90.97;;;;;;;6.38;100.00;101230.42;2762355;86;21010;-80
2021/11/16 07:03:43;;;;;;;176.60;87.27;;;;;;;6.44;100.00;101221.34;2749238;85;21018;-78
2021/11/16 07:07:46;;;;;;;101.25;51.37;;;;;;;6.46;100.00;101218.16;2776504;85;21062;-82
2021/11/16 07:11:52;;;;;;;80.28;37.33;;;;;;;6.46;100.00;101215.52;2777932;85;21010;-84
2021/11/16 07:15:54;;;;;;;84.83;52.90;;;;;;;6.35;100.00;101216.05;2778048;85;21038;-80
2021/11/16 07:19:56;;;;;;;92.85;52.20;;;;;;;6.34;100.00;101220.94;2778345;83;21077;-82
2021/11/16 07:24:12;;;;;;;91.32;52.20;;;;;;;6.33;100.00;101209.98;2778137;85;21014;-83
2021/11/16 07:28:11;;;;;;;91.72;54.20;;;;;;;6.39;100.00;101216.27;2776716;85;21233;-84
2021/11/16 07:32:26;;;;;;;58.60;32.75;;;;;;;6.40;100.00;101217.14;2778163;84;21498;-80
2021/11/16 07:36:27;;;;;;;58.50;30.20;;;;;;;6.17;100.00;101218.27;2778034;85;21050;-78
2021/11/16 07:40:33;;;;;;;65.78;37.30;;;;;;;6.14;100.00;101209.55;2777858;85;20998;-83
2021/11/16 07:44:36;;;;;;;64.35;35.45;;;;;;;6.26;100.00;101208.55;2778299;85;20990;-81
2021/11/16 07:48:39;;;;;;;76.07;43.73;;;;;;;6.32;100.00;101205.63;2778199;85;21074;-82
2021/11/16 07:52:44;;;;;;;58.20;36.98;;;;;;;6.27;100.00;101212.45;2787011;83;21382;-84
2021/11/16 07:56:44;;;;;;;64.65;35.48;;;;;;;6.27;100.00;101220.83;2806052;85;21154;-80
2021/11/16 08:00:48;;;;;;;63.65;36.48;;;;;;;6.19;100.00;101208.02;2804752;84;21048;-81
2021/11/16 08:05:04;;;;;;;64.45;34.20;;;;;;;6.30;100.00;101212.78;2790599;85;21067;-78
2021/11/16 08:09:05;;;;;;;68.15;36.60;;;;;;;6.36;100.00;101214.23;2788011;85;21071;-83
2021/11/16 08:13:15;;;;;;;63.78;36.68;;;;;;;6.35;100.00;101202.83;2788609;85;21322;-78
2021/11/16 08:17:10;;;;;;;94.95;64.32;;;;;;;6.39;100.00;101203.06;2789419;84;21107;-78
2021/11/16 08:21:14;;;;;;;67.12;42.17;;;;;;;6.56;100.00;101186.83;2790446;85;21043;-80
2021/11/16 08:25:16;;;;;;;69.05;45.33;;;;;;;6.59;100.00;101184.50;2790554;85;21090;-78
2021/11/16 08:29:34;;;;;;;66.42;41.45;;;;;;;6.64;100.00;101172.73;2790556;85;21000;-83
2021/11/16 08:33:36;;;;;;;59.08;30.62;;;;;;;6.68;100.00;101161.09;2790796;85;20953;-80
2021/11/16 08:37:39;;;;;;;58.68;33.25;;;;;;;6.82;99.80;101156.86;2790293;85;21088;-81
2021/11/16 08:41:42;;;;;;;55.55;29.02;;;;;;;6.79;99.27;101166.28;2790716;85;21086;-80
2021/11/16 08:45:52;;;;;;;52.58;31.42;;;;;;;6.70;99.74;101153.94;2790588;85;21027;-83
2021/11/16 08:49:53;;;;;;;52.13;31.50;;;;;;;6.96;99.41;101153.48;2790266;84;21322;-83
2021/11/16 08:53:55;;;;;;;61.95;36.13;;;;;;;7.12;99.47;101154.87;2790300;85;21042;-81
2021/11/16 08:57:58;;;;;;;47.85;28.73;;;;;;;7.35;98.81;101148.80;2790644;85;21540;-79
2021/11/16 09:02:06;;;;;;;51.53;30.40;;;;;;;7.38;97.09;101150.81;2802126;84;21003;-82
2021/11/16 09:06:21;;;;;;;66.90;50.48;;;;;;;7.22;96.02;101144.16;2824261;84;21050;-81
2021/11/16 09:10:33;;;;;;;52.05;32.33;;;;;;;7.32;96.09;101146.32;2824257;83;21022;-79
2021/11/16 09:14:35;;;;;;;59.65;34.45;;;;;;;7.50;97.27;101142.66;2820898;84;20995;-82
2021/11/16 09:18:41;;;;;;;56.60;37.15;;;;;;;7.76;97.32;101133.72;2824225;84;21015;-78
2021/11/16 09:22:44;;;;;;;;;;;;;;;7.93;95.32;101129.27;2827177;84;20987;-80
2021/11/16 09:30:56;;;;;;;46.23;24.92;;;;;;;7.67;93.07;101123.66;2789635;84;20975;-77
2021/11/16 09:34:58;;;;;;;44.60;28.77;;;;;;;7.42;94.49;101118.39;2824311;84;21046;-82
2021/11/16 09:39:06;;;;;;;45.00;29.55;;;;;;;7.48;94.72;101115.42;2824240;84;21007;-79
2021/11/16 09:43:11;;;;;;;54.48;27.50;;;;;;;7.54;95.12;101117.72;2824579;84;21007;-79
2021/11/16 09:47:19;;;;;;;47.40;29.42;;;;;;;7.58;95.27;101112.63;2824543;84;20995;-79
2021/11/16 09:51:22;;;;;;;49.38;32.67;;;;;;;7.77;95.40;101110.75;2824499;84;21065;-79
2021/11/16 09:55:33;;;;;;;51.83;32.70;;;;;;;8.07;94.92;101106.81;2824891;84;21011;-80
2021/11/16 09:59:37;;;;;;;50.73;33.95;;;;;;;8.34;94.15;101107.44;2838768;83;21023;-80
2021/11/16 10:03:39;;;;;;;52.53;31.68;;;;;;;8.59;92.86;101095.39;2849193;82;21023;-79
2021/11/16 10:07:41;;;;;;;60.58;33.60;;;;;;;8.70;91.97;101086.78;2843733;83;21050;-77
2021/11/16 10:11:44;;;;;;;65.65;36.03;;;;;;;8.57;92.51;101078.72;2844041;83;20952;-76
2021/11/16 10:15:50;;;;;;;52.65;30.45;;;;;;;8.58;91.70;101077.77;2843897;83;21058;-82
2021/11/16 10:19:52;;;;;;;52.53;31.25;;;;;;;8.57;91.37;101076.07;2843408;83;21062;-76
2021/11/16 10:23:56;;;;;;;54.35;33.42;;;;;;;8.41;93.01;101069.00;2843521;83;21054;-80
2021/11/16 10:28:07;;;;;;;49.45;28.20;;;;;;;8.72;91.44;101067.64;2843134;83;21047;-78
2021/11/16 10:32:22;;;;;;;44.33;30.95;;;;;;;8.97;90.25;101056.84;2842856;83;21031;-79
2021/11/16 10:36:24;;;;;;;43.90;31.25;;;;;;;9.04;88.82;101048.86;2844093;83;21035;-77
2021/11/16 10:40:28;;;;;;;47.35;30.45;;;;;;;9.23;88.56;101055.17;2843545;83;21030;-80
2021/11/16 10:44:32;;;;;;;49.35;29.75;;;;;;;9.37;88.31;101054.30;2844398;83;21015;-79
2021/11/16 10:48:35;;;;;;;42.48;28.47;;;;;;;9.51;87.29;101051.20;2844615;83;21078;-79
2021/11/16 10:52:38;;;;;;;41.30;27.87;;;;;;;9.63;87.46;101038.92;2844355;83;21059;-78
2021/11/16 10:56:41;;;;;;;38.73;27.80;;;;;;;9.61;85.74;101039.50;2844222;83;20996;-80
2021/11/16 11:01:03;;;;;;;38.15;27.20;;;;;;;9.64;85.79;101028.70;2844018;83;21019;-80
2021/11/16 11:05:06;;;;;;;41.48;28.90;;;;;;;9.80;86.50;101029.36;2843098;83;21024;-77
2021/11/16 11:09:08;;;;;;;37.63;26.73;;;;;;;9.86;85.03;101017.02;2844500;83;20949;-80
2021/11/16 11:13:23;;;;;;;37.80;28.73;;;;;;;9.85;84.83;101008.67;2844180;83;21023;-80
2021/11/16 11:17:38;;;;;;;41.33;30.95;;;;;;;9.89;85.01;101010.63;2842934;83;21282;-75
2021/11/16 11:21:49;;;;;;;42.15;27.75;;;;;;;10.00;84.66;101000.59;2844285;83;20988;-80
2021/11/16 11:25:51;;;;;;;30.65;24.52;;;;;;;9.97;84.15;101002.13;2844329;83;21060;-78
2021/11/16 11:29:57;;;;;;;35.05;26.07;;;;;;;10.03;84.01;101002.20;2844212;83;21090;-78
2021/11/16 11:34:18;;;;;;;37.67;25.02;;;;;;;10.01;84.38;100996.97;2844463;83;21075;-80
2021/11/16 11:38:20;;;;;;;33.90;22.82;;;;;;;10.11;84.68;100993.20;2843543;83;21315;-77
2021/11/16 11:42:22;;;;;;;48.40;31.33;;;;;;;10.09;84.42;100989.34;2844208;83;21090;-77
2021/11/16 11:47:00;;;;;;;44.75;26.65;;;;;;;10.03;84.31;100989.77;2844328;83;21059;-78
2021/11/16 11:51:11;;;;;;;42.10;30.72;;;;;;;9.86;85.06;100981.60;2844297;83;21057;-77
2021/11/16 11:55:10;;;;;;;45.48;22.85;;;;;;;9.92;85.54;100981.67;2843711;83;21328;-79
2021/11/16 11:59:13;;;;;;;37.23;26.40;;;;;;;9.67;86.23;100974.03;2843913;81;21082;-77
2021/11/16 12:03:15;;;;;;;38.65;24.27;;;;;;;9.77;85.98;100972.45;2843705;83;21663;-78
2021/11/16 12:07:17;;;;;;;43.55;27.40;;;;;;;9.84;85.48;100964.45;2844120;82;21031;-78
2021/11/16 12:11:21;;;;;;;43.65;26.77;;;;;;;9.93;85.88;100962.11;2843946;83;20980;-78
2021/11/16 12:15:57;;;;;;;38.85;27.15;;;;;;;9.75;84.92;100966.39;2844135;83;21054;-78
2021/11/16 12:19:58;;;;;;;39.25;25.80;;;;;;;9.80;85.23;100953.63;2844235;83;21048;-77
2021/11/16 12:24:07;;;;;;;36.75;26.02;;;;;;;9.54;86.21;100952.27;2843891;82;21125;-76
2021/11/16 12:28:30;;;;;;;42.70;30.88;;;;;;;9.57;87.06;100942.77;2844147;83;21000;-80
2021/11/16 12:32:35;;;;;;;42.03;28.60;;;;;;;9.38;87.57;100938.31;2844349;82;21086;-81
2021/11/16 12:36:47;;;;;;;49.48;27.75;;;;;;;9.43;87.46;100928.22;2817927;83;21071;-79
2021/11/16 12:40:48;;;;;;;39.40;26.65;;;;;;;9.51;86.39;100925.05;2843898;83;21063;-79
2021/11/16 12:45:02;;;;;;;38.83;28.02;;;;;;;9.55;86.03;100920.77;2843906;83;20995;-79
2021/11/16 12:49:04;;;;;;;45.67;30.45;;;;;;;9.56;85.86;100919.81;2842078;83;21398;-81
2021/11/16 12:53:06;;;;;;;58.02;38.65;;;;;;;9.46;86.43;100910.78;2843995;83;21085;-75
2021/11/16 12:57:15;;;;;;;57.27;34.48;;;;;;;9.49;86.46;100901.73;2843940;82;21059;-79
2021/11/16 13:01:49;;;;;;;47.40;29.87;;;;;;;9.53;86.40;100901.44;2842659;83;21007;-80
2021/11/16 13:05:51;;;;;;;42.10;31.62;;;;;;;9.56;86.48;100895.91;2843971;83;21055;-78
2021/11/16 13:10:04;;;;;;;45.10;31.27;;;;;;;9.60;86.47;100879.76;2843882;82;21046;-74
2021/11/16 13:14:14;;;;;;;42.30;32.28;;;;;;;9.66;86.56;100882.85;2844157;83;20996;-79
2021/11/16 13:18:27;;;;;;;45.70;31.20;;;;;;;9.73;86.41;100877.97;2837406;83;20956;-79
2021/11/16 13:22:51;;;;;;;42.05;28.40;;;;;;;9.76;85.86;100875.09;2844192;83;21066;-77
2021/11/16 13:26:52;;;;;;;60.30;37.38;;;;;;;9.81;85.62;100873.46;2844116;83;21074;-76
2021/11/16 13:31:09;;;;;;;53.92;35.10;;;;;;;9.85;85.30;100867.83;2843969;83;21286;-78
2021/11/16 13:35:13;;;;;;;85.80;47.85;;;;;;;9.75;85.59;100870.74;2841592;83;21003;-79
2021/11/16 13:39:31;;;;;;;75.50;48.80;;;;;;;9.72;86.03;100865.16;2843734;83;21111;-77
2021/11/16 13:43:33;;;;;;;62.33;38.98;;;;;;;9.83;86.09;100863.11;2843421;83;21331;-77
2021/11/16 13:47:42;;;;;;;102.78;63.10;;;;;;;9.90;86.01;100860.02;2843594;83;21047;-79
2021/11/16 13:51:43;;;;;;;134.50;80.22;;;;;;;9.97;85.42;100854.63;2843681;83;20987;-79
2021/11/16 13:55:45;;;;;;;121.50;65.62;;;;;;;9.99;85.67;100848.25;2844246;83;21011;-73
2021/11/16 13:59:54;;;;;;;77.80;46.50;;;;;;;10.17;85.10;100855.02;2844035;83;21016;-76
2021/11/16 14:04:19;;;;;;;66.37;39.58;;;;;;;10.13;84.03;100855.25;2843828;83;20980;-80
2021/11/16 14:08:33;;;;;;;93.12;51.90;;;;;;;10.04;83.78;100853.25;2844182;83;20979;-77
2021/11/16 14:12:37;;;;;;;77.53;46.50;;;;;;;9.97;84.31;100858.61;2844248;83;21015;-78
2021/11/16 14:16:39;;;;;;;71.45;43.87;;;;;;;9.82;84.61;100853.91;2844174;83;21015;-79
2021/11/16 14:20:43;;;;;;;75.05;44.10;;;;;;;9.61;85.01;100858.42;2843777;83;20992;-75
2021/11/16 14:24:45;;;;;;;80.72;51.65;;;;;;;9.50;85.51;100852.52;2842214;83;21070;-75
2021/11/16 14:28:47;;;;;;;96.45;63.17;;;;;;;9.42;85.87;100849.52;2840663;83;21011;-77
2021/11/16 14:32:49;;;;;;;75.25;46.73;;;;;;;9.33;86.28;100853.64;2840837;83;21078;-78
2021/11/16 14:36:55;;;;;;;73.55;47.15;;;;;;;9.21;86.62;100850.51;2841752;83;21075;-82
2021/11/16 14:40:57;;;;;;;61.35;39.75;;;;;;;9.08;86.82;100848.66;2841095;83;21129;-77
2021/11/16 14:44:59;;;;;;;67.42;43.28;;;;;;;8.92;87.70;100842.67;2841283;83;21118;-74
2021/11/16 14:49:01;;;;;;;75.12;45.90;;;;;;;8.84;87.66;100839.19;2772093;84;21125;-78
2021/11/16 14:53:15;;;;;;;85.07;56.02;;;;;;;8.75;87.76;100848.63;2753539;86;21066;-77
2021/11/16 14:57:37;;;;;;;79.07;53.87;;;;;;;8.70;87.90;100843.62;2754861;86;21051;-70
2021/11/16 15:01:50;;;;;;;78.15;45.48;;;;;;;8.64;87.62;100844.00;2754689;86;21106;-80
2021/11/16 15:05:53;;;;;;;59.42;37.78;;;;;;;8.60;87.42;100838.52;2753386;86;21090;-83
2021/11/16 15:10:03;;;;;;;63.42;41.40;;;;;;;8.42;87.84;100835.23;2758389;86;21059;-77
2021/11/16 15:14:10;;;;;;;68.20;45.05;;;;;;;8.25;88.39;100835.84;2758629;86;21046;-74
2021/11/16 15:18:13;;;;;;;66.28;43.13;;;;;;;8.19;88.59;100840.67;2796754;85;20999;-75
2021/11/16 15:22:29;;;;;;;79.12;48.20;;;;;;;8.11;88.66;100833.20;2807159;83;21032;-77
2021/11/16 15:26:29;;;;;;;70.78;46.83;;;;;;;7.93;89.19;100828.59;2807478;83;21072;-78
2021/11/16 15:30:36;;;;;;;68.12;43.13;;;;;;;7.84;89.58;100824.22;2811145;83;21031;-72
2021/11/16 15:34:49;;;;;;;60.95;43.05;;;;;;;7.77;89.54;100820.75;2814473;84;21085;-72
2021/11/16 15:39:05;;;;;;;64.53;37.42;;;;;;;7.62;90.17;100814.57;2800638;85;21065;-70
2021/11/16 15:43:32;;;;;;;86.75;50.92;;;;;;;7.63;90.21;100814.95;2795402;85;21038;-73
2021/11/16 15:52:09;;;;;;;58.05;40.45;;;;;;;7.68;89.34;100820.34;2795567;85;21074;-70
2021/11/16 16:00:23;;;;;;;60.92;42.30;;;;;;;7.56;89.11;100808.72;2795557;85;21050;-70
2021/11/16 16:04:25;;;;;;;63.85;39.55;;;;;;;7.48;89.17;100813.64;2781273;85;21058;-75
2021/11/16 16:08:27;;;;;;;83.78;50.23;;;;;;;7.35;89.40;100806.05;2798092;85;21003;-72
2021/11/16 16:12:29;;;;;;;92.78;53.60;;;;;;;7.27;89.67;100807.37;2797976;85;21384;-70
2021/11/16 16:16:31;;;;;;;70.47;44.85;;;;;;;7.29;89.47;100808.12;2798124;85;21026;-73
2021/11/16 16:20:33;;;;;;;108.25;63.13;;;;;;;7.16;89.89;100800.53;2796340;85;21109;-72
2021/11/16 16:24:35;;;;;;;91.85;57.65;;;;;;;7.02;90.32;100799.16;2791579;85;21038;-69
2021/11/16 16:28:51;;;;;;;87.50;53.95;;;;;;;7.00;90.06;100793.48;2791725;85;21066;-72
2021/11/16 16:32:52;;;;;;;85.62;52.45;;;;;;;6.93;90.24;100801.41;2804283;85;21070;-71
2021/11/16 16:36:55;;;;;;;72.72;49.30;;;;;;;6.82;90.44;100806.00;2785580;84;21015;-73
2021/11/16 16:40:57;;;;;;;78.92;51.42;;;;;;;6.71;90.81;100804.44;2784962;85;21027;-70
2021/11/16 16:44:59;;;;;;;94.47;60.65;;;;;;;6.59;91.25;100798.06;2784958;85;21188;-72
2021/11/16 16:49:02;;;;;;;84.87;63.23;;;;;;;6.40;92.22;100789.86;2784907;85;20932;-72
2021/11/16 16:53:05;;;;;;;95.28;65.83;;;;;;;6.31;92.41;100781.14;2784470;85;21050;-72
2021/11/16 16:57:06;;;;;;;90.60;57.88;;;;;;;6.34;92.00;100782.28;2784721;85;21042;-70
2021/11/16 17:01:08;;;;;;;85.28;58.73;;;;;;;6.26;91.71;100789.31;2784436;85;21335;-67
2021/11/16 17:05:11;;;;;;;84.95;57.40;;;;;;;6.18;91.72;100780.11;2774765;85;21005;-72
2021/11/16 17:09:13;;;;;;;98.90;62.35;;;;;;;6.09;92.16;100781.02;2767903;86;21021;-72
2021/11/16 17:13:17;;;;;;;78.55;50.43;;;;;;;6.19;91.03;100781.81;2767202;85;21061;-69
2021/11/16 17:17:25;;;;;;;52.55;36.20;;;;;;;6.29;89.88;100782.53;2799642;85;21023;-72
2021/11/16 17:21:28;;;;;;;61.20;41.53;;;;;;;6.32;87.91;100779.33;2799833;85;21043;-71
2021/11/16 17:25:30;;;;;;;57.93;34.18;;;;;;;6.28;87.08;100785.25;2799101;83;21074;-81
2021/11/16 17:29:32;;;;;;;48.58;29.60;;;;;;;6.12;86.18;100783.48;2798830;85;20999;-76
2021/11/16 17:33:34;;;;;;;58.33;30.17;;;;;;;6.04;86.04;100779.07;2799190;84;21122;-80
2021/11/16 17:37:37;;;;;;;51.68;27.32;;;;;;;5.92;85.94;100779.25;2798854;85;21105;-77
2021/11/16 17:41:40;;;;;;;70.40;27.65;;;;;;;5.82;86.12;100774.09;2799384;84;21101;-70
2021/11/16 17:45:42;;;;;;;51.20;29.82;;;;;;;5.77;86.14;100782.26;2799312;85;21589;-81
2021/11/16 17:49:44;;;;;;;66.60;27.70;;;;;;;5.77;87.12;100781.39;2799252;84;21007;-77
2021/11/16 17:53:46;;;;;;;75.00;28.25;;;;;;;5.65;86.50;100774.53;2798965;84;20999;-77
2021/11/16 17:57:47;;;;;;;62.65;28.52;;;;;;;5.58;86.71;100771.36;2799175;84;21022;-77
2021/11/16 18:01:49;;;;;;;51.85;28.70;;;;;;;5.50;86.43;100768.29;2799392;85;21027;-77
2021/11/16 18:05:54;;;;;;;61.02;34.25;;;;;;;5.38;86.68;100764.97;2778307;85;21308;-77
2021/11/16 18:09:57;;;;;;;54.03;30.50;;;;;;;5.26;86.91;100767.30;2770155;85;21030;-77
2021/11/16 18:14:00;;;;;;;54.18;31.10;;;;;;;5.27;88.29;100763.73;2771314;84;20999;-70
2021/11/16 18:18:06;;;;;;;64.40;31.33;;;;;;;5.44;89.38;100762.00;2771347;86;21090;-78
2021/11/16 18:22:08;;;;;;;67.90;31.77;;;;;;;5.55;89.40;100749.10;2771360;86;21070;-71
2021/11/16 18:26:09;;;;;;;52.98;29.87;;;;;;;5.73;89.85;100760.92;2771099;85;21094;-76
2021/11/16 18:30:18;;;;;;;60.20;33.63;;;;;;;5.91;90.10;100760.86;2771304;86;21042;-78
2021/11/16 18:34:19;;;;;;;60.67;33.63;;;;;;;6.03;89.53;100749.64;2783899;83;21092;-72
2021/11/16 18:38:25;;;;;;;73.90;36.30;;;;;;;6.02;89.16;100749.74;2773349;84;21094;-69
2021/11/16 18:42:30;;;;;;;63.63;35.33;;;;;;;5.92;89.57;100748.05;2768051;86;21090;-74
2021/11/16 18:46:34;;;;;;;114.40;56.68;;;;;;;5.83;90.02;100746.76;2774121;83;21080;-72
2021/11/16 18:50:32;;;;;;;82.88;51.83;;;;;;;5.75;91.07;100742.34;2809485;84;21047;-69
2021/11/16 18:54:39;;;;;;;81.25;48.42;;;;;;;5.80;90.82;100737.20;2797110;83;21046;-75
2021/11/16 18:58:38;;;;;;;72.85;42.58;;;;;;;5.77;91.30;100737.38;2769708;86;21050;-74
2021/11/16 19:02:41;;;;;;;98.27;53.30;;;;;;;5.78;91.49;100736.44;2810506;84;21057;-78
2021/11/16 19:06:42;;;;;;;118.57;65.28;;;;;;;5.83;91.45;100731.75;2826377;83;21063;-74
2021/11/16 19:10:45;;;;;;;86.32;55.58;;;;;;;5.97;91.53;100723.06;2787981;85;21054;-77